This is the latest recevied weather packets stored in our database for station/object IZ3TCG-13. If no packets are shown the sender has not sent any weather packets the latest 10 day(s).
| Time | Temp. | Humidity | Pressure | Rain* | Wind** | Luminosity | Snow |
|---|---|---|---|---|---|---|---|
| 1777947124 | 15.56° C | 96% | 1009.5 hPa | 0 mm | - | - | - |
| 1777945924 | 15.56° C | 95% | 1009.7 hPa | 0 mm | - | - | - |
| 1777944724 | 15° C | 92% | 1009.8 hPa | 0 mm | - | - | - |
| 1777943175 | 15.56° C | 87% | 1009.9 hPa | 0 mm | - | - | - |
| 1777942934 | 15.56° C | 86% | 1010.1 hPa | 0 mm | - | - | - |
| 1777942693 | 15° C | 86% | 1010.2 hPa | 0 mm | - | - | - |
| 1777941603 | 15° C | 83% | 1010.4 hPa | 0 mm | - | - | - |
| 1777941014 | 15° C | 82% | 1010.7 hPa | 0 mm | - | - | - |
| 1777940404 | 15° C | 81% | 1010.8 hPa | 0 mm | - | - | - |
| 1777939924 | 15° C | 82% | 1010.9 hPa | 0 mm | - | - | - |
| 1777937763 | 15° C | 79% | 1011.1 hPa | 0 mm | - | - | - |
| 1777936564 | 15.56° C | 79% | 1011.3 hPa | 0 mm | - | - | - |
| 1777935736 | 15.56° C | 77% | 1011.4 hPa | 0 mm | - | - | - |
| 1777935124 | 15.56° C | 76% | 1011.5 hPa | 0 mm | - | - | - |
| 1777934644 | 15.56° C | 76% | 1011.5 hPa | 0 mm | - | - | - |
| 1777932377 | 16.11° C | 75% | 1011.7 hPa | 0 mm | - | - | - |
| 1777932008 | 16.11° C | 76% | 1011.7 hPa | 0 mm | - | - | - |
| 1777931044 | 16.11° C | 77% | 1011.6 hPa | 0 mm | - | - | - |
| 1777929843 | 15.56° C | 79% | 1011.5 hPa | 0 mm | - | - | - |
| 1777927444 | 16.11° C | 75% | 1011.4 hPa | 0 mm | - | - | - |
| 1777924937 | 16.11° C | 74% | 1011.5 hPa | 0 mm | - | - | - |
| 1777924324 | 16.67° C | 72% | 1011.2 hPa | 0 mm | - | - | - |
| 1777922777 | 17.78° C | 67% | 1011.2 hPa | 0 mm | - | - | - |
| 1777922163 | 17.78° C | 65% | 1011.2 hPa | 0 mm | - | - | - |
| 1777918563 | 20° C | 58% | 1011.2 hPa | 0 mm | - | - | - |
* Rain latest hour (hover to see other rain measurements)
** Current wind speed in m/s (hover to see current wind gust speed)